sensor_id;sensor_type;location;lat;lon;timestamp;P1;durP1;ratioP1;P2;durP2;ratioP2
25615;SDS011;13482;48.234;13.006;2024-01-10T00:00:19;10.27;;;6.57;;
25615;SDS011;13482;48.234;13.006;2024-01-10T00:02:47;11.10;;;5.82;;
25615;SDS011;13482;48.234;13.006;2024-01-10T00:05:14;11.73;;;6.68;;
25615;SDS011;13482;48.234;13.006;2024-01-10T00:07:46;11.95;;;6.38;;
25615;SDS011;13482;48.234;13.006;2024-01-10T00:10:14;13.63;;;7.07;;
25615;SDS011;13482;48.234;13.006;2024-01-10T00:12:41;11.38;;;6.53;;
25615;SDS011;13482;48.234;13.006;2024-01-10T00:15:11;9.98;;;5.90;;
25615;SDS011;13482;48.234;13.006;2024-01-10T00:17:40;11.52;;;6.57;;
25615;SDS011;13482;48.234;13.006;2024-01-10T00:20:07;10.70;;;5.97;;
25615;SDS011;13482;48.234;13.006;2024-01-10T00:22:35;10.68;;;6.53;;
25615;SDS011;13482;48.234;13.006;2024-01-10T00:25:03;11.40;;;6.78;;
25615;SDS011;13482;48.234;13.006;2024-01-10T00:27:31;12.55;;;7.00;;
25615;SDS011;13482;48.234;13.006;2024-01-10T00:29:58;11.98;;;7.05;;
25615;SDS011;13482;48.234;13.006;2024-01-10T00:32:26;12.38;;;7.10;;
25615;SDS011;13482;48.234;13.006;2024-01-10T00:34:54;10.38;;;6.38;;
25615;SDS011;13482;48.234;13.006;2024-01-10T00:37:21;11.85;;;6.70;;
25615;SDS011;13482;48.234;13.006;2024-01-10T00:39:49;12.18;;;7.00;;
25615;SDS011;13482;48.234;13.006;2024-01-10T00:42:16;12.23;;;6.90;;
25615;SDS011;13482;48.234;13.006;2024-01-10T00:44:44;11.52;;;6.82;;
25615;SDS011;13482;48.234;13.006;2024-01-10T00:47:12;11.05;;;6.47;;
25615;SDS011;13482;48.234;13.006;2024-01-10T00:49:39;12.30;;;6.88;;
25615;SDS011;13482;48.234;13.006;2024-01-10T00:52:07;10.35;;;5.82;;
25615;SDS011;13482;48.234;13.006;2024-01-10T00:54:34;9.70;;;5.82;;
25615;SDS011;13482;48.234;13.006;2024-01-10T00:57:02;12.13;;;6.93;;
25615;SDS011;13482;48.234;13.006;2024-01-10T00:59:30;13.20;;;7.63;;
25615;SDS011;13482;48.234;13.006;2024-01-10T01:01:57;11.27;;;6.78;;
25615;SDS011;13482;48.234;13.006;2024-01-10T01:04:25;11.25;;;6.13;;
25615;SDS011;13482;48.234;13.006;2024-01-10T01:06:53;12.35;;;6.95;;
25615;SDS011;13482;48.234;13.006;2024-01-10T01:09:21;14.32;;;7.05;;
25615;SDS011;13482;48.234;13.006;2024-01-10T01:11:48;11.50;;;6.50;;
25615;SDS011;13482;48.234;13.006;2024-01-10T01:14:16;12.32;;;6.82;;
25615;SDS011;13482;48.234;13.006;2024-01-10T01:16:43;14.90;;;7.18;;
25615;SDS011;13482;48.234;13.006;2024-01-10T01:19:11;11.98;;;6.47;;
25615;SDS011;13482;48.234;13.006;2024-01-10T01:21:38;12.38;;;6.45;;
25615;SDS011;13482;48.234;13.006;2024-01-10T01:24:06;11.63;;;6.35;;
25615;SDS011;13482;48.234;13.006;2024-01-10T01:26:33;10.50;;;6.53;;
25615;SDS011;13482;48.234;13.006;2024-01-10T01:29:00;9.88;;;5.78;;
25615;SDS011;13482;48.234;13.006;2024-01-10T01:31:29;11.25;;;6.80;;
25615;SDS011;13482;48.234;13.006;2024-01-10T01:33:59;9.27;;;4.97;;
25615;SDS011;13482;48.234;13.006;2024-01-10T01:36:26;13.07;;;7.47;;
25615;SDS011;13482;48.234;13.006;2024-01-10T01:38:54;12.70;;;6.72;;
25615;SDS011;13482;48.234;13.006;2024-01-10T01:41:21;10.93;;;6.55;;
25615;SDS011;13482;48.234;13.006;2024-01-10T01:43:49;11.80;;;6.85;;
25615;SDS011;13482;48.234;13.006;2024-01-10T01:46:16;15.23;;;7.63;;
25615;SDS011;13482;48.234;13.006;2024-01-10T01:48:44;12.93;;;7.30;;
25615;SDS011;13482;48.234;13.006;2024-01-10T01:51:14;12.48;;;6.70;;
25615;SDS011;13482;48.234;13.006;2024-01-10T01:53:44;12.68;;;7.03;;
25615;SDS011;13482;48.234;13.006;2024-01-10T01:56:13;12.30;;;7.13;;
25615;SDS011;13482;48.234;13.006;2024-01-10T01:58:41;11.05;;;6.45;;
25615;SDS011;13482;48.234;13.006;2024-01-10T02:01:11;11.52;;;6.93;;
25615;SDS011;13482;48.234;13.006;2024-01-10T02:03:39;12.13;;;7.00;;
25615;SDS011;13482;48.234;13.006;2024-01-10T02:06:07;10.85;;;6.72;;
25615;SDS011;13482;48.234;13.006;2024-01-10T02:08:35;13.25;;;7.07;;
25615;SDS011;13482;48.234;13.006;2024-01-10T02:11:03;12.18;;;7.28;;
25615;SDS011;13482;48.234;13.006;2024-01-10T02:13:32;13.40;;;6.80;;
25615;SDS011;13482;48.234;13.006;2024-01-10T02:16:00;10.60;;;6.32;;
25615;SDS011;13482;48.234;13.006;2024-01-10T02:18:30;11.52;;;6.80;;
25615;SDS011;13482;48.234;13.006;2024-01-10T02:20:58;11.20;;;6.50;;
25615;SDS011;13482;48.234;13.006;2024-01-10T02:23:25;13.13;;;7.15;;
25615;SDS011;13482;48.234;13.006;2024-01-10T02:25:53;13.02;;;7.63;;
25615;SDS011;13482;48.234;13.006;2024-01-10T02:28:20;12.43;;;7.25;;
25615;SDS011;13482;48.234;13.006;2024-01-10T02:30:50;10.48;;;6.50;;
25615;SDS011;13482;48.234;13.006;2024-01-10T02:33:19;11.57;;;6.68;;
25615;SDS011;13482;48.234;13.006;2024-01-10T02:35:47;12.48;;;7.18;;
25615;SDS011;13482;48.234;13.006;2024-01-10T02:38:15;12.05;;;6.50;;
25615;SDS011;13482;48.234;13.006;2024-01-10T02:40:42;11.32;;;7.30;;
25615;SDS011;13482;48.234;13.006;2024-01-10T02:43:10;12.05;;;6.95;;
25615;SDS011;13482;48.234;13.006;2024-01-10T02:45:38;13.13;;;7.03;;
25615;SDS011;13482;48.234;13.006;2024-01-10T02:48:05;12.15;;;6.88;;
25615;SDS011;13482;48.234;13.006;2024-01-10T02:50:33;11.55;;;6.72;;
25615;SDS011;13482;48.234;13.006;2024-01-10T02:53:00;11.52;;;6.55;;
25615;SDS011;13482;48.234;13.006;2024-01-10T02:55:28;12.55;;;8.07;;
25615;SDS011;13482;48.234;13.006;2024-01-10T02:57:56;12.55;;;7.05;;
25615;SDS011;13482;48.234;13.006;2024-01-10T03:00:23;12.30;;;7.15;;
25615;SDS011;13482;48.234;13.006;2024-01-10T03:02:51;12.55;;;7.32;;
25615;SDS011;13482;48.234;13.006;2024-01-10T03:05:19;14.82;;;8.18;;
25615;SDS011;13482;48.234;13.006;2024-01-10T03:07:46;15.60;;;8.50;;
25615;SDS011;13482;48.234;13.006;2024-01-10T03:10:14;14.15;;;8.35;;
25615;SDS011;13482;48.234;13.006;2024-01-10T03:12:41;15.85;;;9.02;;
25615;SDS011;13482;48.234;13.006;2024-01-10T03:15:09;16.40;;;8.82;;
25615;SDS011;13482;48.234;13.006;2024-01-10T03:17:36;12.73;;;7.95;;
25615;SDS011;13482;48.234;13.006;2024-01-10T03:20:05;14.40;;;8.02;;
25615;SDS011;13482;48.234;13.006;2024-01-10T03:22:35;12.02;;;6.93;;
25615;SDS011;13482;48.234;13.006;2024-01-10T03:25:04;12.05;;;7.00;;
25615;SDS011;13482;48.234;13.006;2024-01-10T03:27:31;13.90;;;7.05;;
25615;SDS011;13482;48.234;13.006;2024-01-10T03:29:59;13.32;;;7.22;;
25615;SDS011;13482;48.234;13.006;2024-01-10T03:32:26;12.82;;;7.57;;
25615;SDS011;13482;48.234;13.006;2024-01-10T03:34:54;13.48;;;7.63;;
25615;SDS011;13482;48.234;13.006;2024-01-10T03:37:22;12.43;;;7.30;;
25615;SDS011;13482;48.234;13.006;2024-01-10T03:39:49;14.30;;;7.97;;
25615;SDS011;13482;48.234;13.006;2024-01-10T03:42:17;12.77;;;7.65;;
25615;SDS011;13482;48.234;13.006;2024-01-10T03:44:44;12.00;;;7.60;;
25615;SDS011;13482;48.234;13.006;2024-01-10T03:47:12;13.48;;;7.45;;
25615;SDS011;13482;48.234;13.006;2024-01-10T03:49:39;14.15;;;7.82;;
25615;SDS011;13482;48.234;13.006;2024-01-10T03:52:07;11.77;;;6.97;;
25615;SDS011;13482;48.234;13.006;2024-01-10T03:54:34;13.40;;;7.40;;
25615;SDS011;13482;48.234;13.006;2024-01-10T03:57:03;11.85;;;7.10;;
25615;SDS011;13482;48.234;13.006;2024-01-10T03:59:31;12.50;;;7.60;;
25615;SDS011;13482;48.234;13.006;2024-01-10T04:01:59;12.45;;;7.20;;
25615;SDS011;13482;48.234;13.006;2024-01-10T04:04:27;12.88;;;7.65;;
25615;SDS011;13482;48.234;13.006;2024-01-10T04:06:55;12.60;;;7.70;;
25615;SDS011;13482;48.234;13.006;2024-01-10T04:09:22;13.50;;;7.57;;
25615;SDS011;13482;48.234;13.006;2024-01-10T04:11:49;14.38;;;8.27;;
25615;SDS011;13482;48.234;13.006;2024-01-10T04:14:17;13.90;;;7.68;;
25615;SDS011;13482;48.234;13.006;2024-01-10T04:16:45;13.52;;;7.93;;
25615;SDS011;13482;48.234;13.006;2024-01-10T04:19:13;13.50;;;7.72;;
25615;SDS011;13482;48.234;13.006;2024-01-10T04:21:40;11.32;;;7.10;;
25615;SDS011;13482;48.234;13.006;2024-01-10T04:24:08;12.52;;;7.35;;
25615;SDS011;13482;48.234;13.006;2024-01-10T04:26:35;13.30;;;7.72;;
25615;SDS011;13482;48.234;13.006;2024-01-10T04:29:04;14.23;;;7.88;;
25615;SDS011;13482;48.234;13.006;2024-01-10T04:31:31;14.07;;;7.40;;
25615;SDS011;13482;48.234;13.006;2024-01-10T04:33:59;13.68;;;8.02;;
25615;SDS011;13482;48.234;13.006;2024-01-10T04:36:26;13.07;;;8.20;;
25615;SDS011;13482;48.234;13.006;2024-01-10T04:38:54;13.55;;;7.78;;
25615;SDS011;13482;48.234;13.006;2024-01-10T04:41:22;14.40;;;8.13;;
25615;SDS011;13482;48.234;13.006;2024-01-10T04:43:50;14.52;;;8.30;;
25615;SDS011;13482;48.234;13.006;2024-01-10T04:46:18;14.55;;;8.45;;
25615;SDS011;13482;48.234;13.006;2024-01-10T04:48:45;16.08;;;9.15;;
25615;SDS011;13482;48.234;13.006;2024-01-10T04:51:13;18.75;;;10.43;;
25615;SDS011;13482;48.234;13.006;2024-01-10T04:53:41;22.20;;;11.40;;
25615;SDS011;13482;48.234;13.006;2024-01-10T04:56:08;21.42;;;11.05;;
25615;SDS011;13482;48.234;13.006;2024-01-10T04:58:36;26.50;;;12.35;;
25615;SDS011;13482;48.234;13.006;2024-01-10T05:01:04;21.65;;;11.63;;
25615;SDS011;13482;48.234;13.006;2024-01-10T05:03:31;17.67;;;10.38;;
25615;SDS011;13482;48.234;13.006;2024-01-10T05:05:59;15.48;;;9.48;;
25615;SDS011;13482;48.234;13.006;2024-01-10T05:08:27;16.55;;;9.82;;
25615;SDS011;13482;48.234;13.006;2024-01-10T05:10:54;20.08;;;11.35;;
25615;SDS011;13482;48.234;13.006;2024-01-10T05:13:22;22.27;;;12.18;;
25615;SDS011;13482;48.234;13.006;2024-01-10T05:15:50;17.77;;;10.32;;
25615;SDS011;13482;48.234;13.006;2024-01-10T05:18:18;21.85;;;12.00;;
25615;SDS011;13482;48.234;13.006;2024-01-10T05:20:46;21.10;;;11.80;;
25615;SDS011;13482;48.234;13.006;2024-01-10T05:23:15;19.40;;;11.48;;
25615;SDS011;13482;48.234;13.006;2024-01-10T05:25:43;22.05;;;11.68;;
25615;SDS011;13482;48.234;13.006;2024-01-10T05:28:10;21.92;;;11.93;;
25615;SDS011;13482;48.234;13.006;2024-01-10T05:30:38;20.08;;;12.10;;
25615;SDS011;13482;48.234;13.006;2024-01-10T05:33:05;22.45;;;12.77;;
25615;SDS011;13482;48.234;13.006;2024-01-10T05:35:33;22.25;;;12.27;;
25615;SDS011;13482;48.234;13.006;2024-01-10T05:38:02;20.77;;;10.88;;
25615;SDS011;13482;48.234;13.006;2024-01-10T05:40:30;22.15;;;12.82;;
25615;SDS011;13482;48.234;13.006;2024-01-10T05:43:02;19.55;;;11.57;;
25615;SDS011;13482;48.234;13.006;2024-01-10T05:45:30;22.27;;;11.35;;
25615;SDS011;13482;48.234;13.006;2024-01-10T05:47:58;20.30;;;10.73;;
25615;SDS011;13482;48.234;13.006;2024-01-10T05:50:25;19.83;;;10.68;;
25615;SDS011;13482;48.234;13.006;2024-01-10T05:52:53;17.95;;;10.15;;
25615;SDS011;13482;48.234;13.006;2024-01-10T05:55:21;21.70;;;11.02;;
25615;SDS011;13482;48.234;13.006;2024-01-10T05:57:50;18.48;;;10.52;;
25615;SDS011;13482;48.234;13.006;2024-01-10T06:00:18;19.77;;;11.35;;
25615;SDS011;13482;48.234;13.006;2024-01-10T06:02:47;19.02;;;10.60;;
25615;SDS011;13482;48.234;13.006;2024-01-10T06:05:16;18.52;;;10.77;;
25615;SDS011;13482;48.234;13.006;2024-01-10T06:07:43;22.30;;;12.18;;
25615;SDS011;13482;48.234;13.006;2024-01-10T06:10:11;21.05;;;11.73;;
25615;SDS011;13482;48.234;13.006;2024-01-10T06:12:38;22.50;;;11.20;;
25615;SDS011;13482;48.234;13.006;2024-01-10T06:15:06;18.60;;;11.00;;
25615;SDS011;13482;48.234;13.006;2024-01-10T06:17:34;17.15;;;9.77;;
25615;SDS011;13482;48.234;13.006;2024-01-10T06:20:02;22.60;;;12.20;;
25615;SDS011;13482;48.234;13.006;2024-01-10T06:22:31;19.17;;;11.35;;
25615;SDS011;13482;48.234;13.006;2024-01-10T06:24:58;15.95;;;10.45;;
25615;SDS011;13482;48.234;13.006;2024-01-10T06:27:26;19.88;;;10.43;;
25615;SDS011;13482;48.234;13.006;2024-01-10T06:29:54;18.13;;;10.63;;
25615;SDS011;13482;48.234;13.006;2024-01-10T06:32:21;17.83;;;10.00;;
25615;SDS011;13482;48.234;13.006;2024-01-10T06:34:49;15.23;;;9.65;;
25615;SDS011;13482;48.234;13.006;2024-01-10T06:37:17;15.23;;;9.10;;
25615;SDS011;13482;48.234;13.006;2024-01-10T06:39:45;18.33;;;10.35;;
25615;SDS011;13482;48.234;13.006;2024-01-10T06:42:12;19.92;;;11.18;;
25615;SDS011;13482;48.234;13.006;2024-01-10T06:44:40;19.25;;;10.93;;
25615;SDS011;13482;48.234;13.006;2024-01-10T06:47:09;17.35;;;10.65;;
25615;SDS011;13482;48.234;13.006;2024-01-10T06:49:36;15.63;;;10.20;;
25615;SDS011;13482;48.234;13.006;2024-01-10T06:52:05;18.63;;;10.88;;
25615;SDS011;13482;48.234;13.006;2024-01-10T06:54:34;17.00;;;9.90;;
25615;SDS011;13482;48.234;13.006;2024-01-10T06:57:01;18.27;;;10.48;;
25615;SDS011;13482;48.234;13.006;2024-01-10T06:59:29;20.40;;;10.95;;
25615;SDS011;13482;48.234;13.006;2024-01-10T07:01:57;17.70;;;10.48;;
25615;SDS011;13482;48.234;13.006;2024-01-10T07:04:25;16.48;;;8.88;;
25615;SDS011;13482;48.234;13.006;2024-01-10T07:06:54;16.00;;;9.30;;
25615;SDS011;13482;48.234;13.006;2024-01-10T07:09:21;20.15;;;10.60;;
25615;SDS011;13482;48.234;13.006;2024-01-10T07:11:49;16.17;;;9.85;;
25615;SDS011;13482;48.234;13.006;2024-01-10T07:14:17;19.45;;;10.82;;
25615;SDS011;13482;48.234;13.006;2024-01-10T07:16:44;17.33;;;9.60;;
25615;SDS011;13482;48.234;13.006;2024-01-10T07:19:13;20.23;;;10.80;;
25615;SDS011;13482;48.234;13.006;2024-01-10T07:21:41;19.27;;;10.85;;
25615;SDS011;13482;48.234;13.006;2024-01-10T07:24:10;20.05;;;11.10;;
25615;SDS011;13482;48.234;13.006;2024-01-10T07:26:38;20.98;;;11.00;;
25615;SDS011;13482;48.234;13.006;2024-01-10T07:29:06;19.98;;;11.13;;
25615;SDS011;13482;48.234;13.006;2024-01-10T07:31:36;20.13;;;10.57;;
25615;SDS011;13482;48.234;13.006;2024-01-10T07:34:04;21.58;;;11.95;;
25615;SDS011;13482;48.234;13.006;2024-01-10T07:36:32;21.05;;;11.30;;
25615;SDS011;13482;48.234;13.006;2024-01-10T07:39:00;22.85;;;11.90;;
25615;SDS011;13482;48.234;13.006;2024-01-10T07:41:30;18.42;;;10.48;;
25615;SDS011;13482;48.234;13.006;2024-01-10T07:43:57;21.50;;;11.40;;
25615;SDS011;13482;48.234;13.006;2024-01-10T07:46:25;20.80;;;11.90;;
25615;SDS011;13482;48.234;13.006;2024-01-10T07:48:53;19.20;;;11.25;;
25615;SDS011;13482;48.234;13.006;2024-01-10T07:51:21;21.30;;;11.73;;
25615;SDS011;13482;48.234;13.006;2024-01-10T07:53:48;22.35;;;12.05;;
25615;SDS011;13482;48.234;13.006;2024-01-10T07:56:16;22.13;;;12.57;;
25615;SDS011;13482;48.234;13.006;2024-01-10T07:58:46;22.38;;;11.75;;
25615;SDS011;13482;48.234;13.006;2024-01-10T08:01:15;21.27;;;11.77;;
25615;SDS011;13482;48.234;13.006;2024-01-10T08:03:42;20.83;;;11.68;;
25615;SDS011;13482;48.234;13.006;2024-01-10T08:06:10;23.15;;;11.98;;
25615;SDS011;13482;48.234;13.006;2024-01-10T08:08:52;22.23;;;12.38;;
25615;SDS011;13482;48.234;13.006;2024-01-10T08:11:19;21.70;;;11.45;;
25615;SDS011;13482;48.234;13.006;2024-01-10T08:13:47;20.85;;;11.20;;
25615;SDS011;13482;48.234;13.006;2024-01-10T08:16:14;21.95;;;11.63;;
25615;SDS011;13482;48.234;13.006;2024-01-10T08:18:41;26.15;;;12.68;;
25615;SDS011;13482;48.234;13.006;2024-01-10T08:21:09;21.40;;;11.38;;
25615;SDS011;13482;48.234;13.006;2024-01-10T08:23:37;20.25;;;11.45;;
25615;SDS011;13482;48.234;13.006;2024-01-10T08:26:06;19.25;;;11.52;;
25615;SDS011;13482;48.234;13.006;2024-01-10T08:28:35;22.20;;;12.60;;
25615;SDS011;13482;48.234;13.006;2024-01-10T08:31:02;22.15;;;12.43;;
25615;SDS011;13482;48.234;13.006;2024-01-10T08:33:31;23.77;;;12.55;;
25615;SDS011;13482;48.234;13.006;2024-01-10T08:35:59;20.45;;;11.65;;
25615;SDS011;13482;48.234;13.006;2024-01-10T08:38:26;22.35;;;13.13;;
25615;SDS011;13482;48.234;13.006;2024-01-10T08:40:54;23.55;;;11.85;;
25615;SDS011;13482;48.234;13.006;2024-01-10T08:43:21;22.02;;;12.85;;
25615;SDS011;13482;48.234;13.006;2024-01-10T08:45:49;24.38;;;12.68;;
25615;SDS011;13482;48.234;13.006;2024-01-10T08:48:16;21.52;;;11.95;;
25615;SDS011;13482;48.234;13.006;2024-01-10T08:50:43;25.30;;;13.07;;
25615;SDS011;13482;48.234;13.006;2024-01-10T08:53:11;19.15;;;11.20;;
25615;SDS011;13482;48.234;13.006;2024-01-10T08:55:38;22.10;;;12.63;;
25615;SDS011;13482;48.234;13.006;2024-01-10T08:58:06;23.33;;;11.57;;
25615;SDS011;13482;48.234;13.006;2024-01-10T09:00:33;21.05;;;11.50;;
25615;SDS011;13482;48.234;13.006;2024-01-10T09:03:01;18.67;;;10.30;;
25615;SDS011;13482;48.234;13.006;2024-01-10T09:05:29;19.45;;;10.75;;
25615;SDS011;13482;48.234;13.006;2024-01-10T09:07:57;19.08;;;10.82;;
25615;SDS011;13482;48.234;13.006;2024-01-10T09:10:25;20.88;;;11.05;;
25615;SDS011;13482;48.234;13.006;2024-01-10T09:12:58;19.98;;;11.32;;
25615;SDS011;13482;48.234;13.006;2024-01-10T09:15:26;20.60;;;11.15;;
25615;SDS011;13482;48.234;13.006;2024-01-10T09:17:53;21.40;;;12.15;;
25615;SDS011;13482;48.234;13.006;2024-01-10T09:20:21;21.83;;;12.75;;
25615;SDS011;13482;48.234;13.006;2024-01-10T09:22:48;20.85;;;11.60;;
25615;SDS011;13482;48.234;13.006;2024-01-10T09:25:16;19.65;;;11.23;;
25615;SDS011;13482;48.234;13.006;2024-01-10T09:27:44;20.63;;;12.20;;
25615;SDS011;13482;48.234;13.006;2024-01-10T09:30:12;22.13;;;11.73;;
25615;SDS011;13482;48.234;13.006;2024-01-10T09:32:43;21.13;;;12.02;;
25615;SDS011;13482;48.234;13.006;2024-01-10T09:35:12;19.13;;;11.57;;
25615;SDS011;13482;48.234;13.006;2024-01-10T09:37:40;21.35;;;12.10;;
25615;SDS011;13482;48.234;13.006;2024-01-10T09:40:08;20.85;;;12.00;;
25615;SDS011;13482;48.234;13.006;2024-01-10T09:42:37;21.83;;;12.40;;
25615;SDS011;13482;48.234;13.006;2024-01-10T09:45:04;20.15;;;12.00;;
25615;SDS011;13482;48.234;13.006;2024-01-10T09:47:34;23.90;;;12.88;;
25615;SDS011;13482;48.234;13.006;2024-01-10T09:50:04;21.45;;;12.38;;
25615;SDS011;13482;48.234;13.006;2024-01-10T09:52:36;23.05;;;12.60;;
25615;SDS011;13482;48.234;13.006;2024-01-10T09:55:12;22.70;;;12.80;;
25615;SDS011;13482;48.234;13.006;2024-01-10T09:57:42;23.13;;;13.32;;
25615;SDS011;13482;48.234;13.006;2024-01-10T10:00:10;23.80;;;14.05;;
25615;SDS011;13482;48.234;13.006;2024-01-10T10:02:38;23.67;;;13.07;;
25615;SDS011;13482;48.234;13.006;2024-01-10T10:05:14;19.70;;;12.38;;
25615;SDS011;13482;48.234;13.006;2024-01-10T10:07:44;20.75;;;12.15;;
25615;SDS011;13482;48.234;13.006;2024-01-10T10:12:44;18.05;;;11.15;;
25615;SDS011;13482;48.234;13.006;2024-01-10T10:15:18;19.70;;;11.80;;
25615;SDS011;13482;48.234;13.006;2024-01-10T10:17:53;19.23;;;11.13;;
25615;SDS011;13482;48.234;13.006;2024-01-10T10:20:28;17.75;;;10.73;;
25615;SDS011;13482;48.234;13.006;2024-01-10T10:23:03;20.02;;;11.75;;
25615;SDS011;13482;48.234;13.006;2024-01-10T10:25:43;19.60;;;11.27;;
25615;SDS011;13482;48.234;13.006;2024-01-10T10:28:11;19.90;;;11.88;;
25615;SDS011;13482;48.234;13.006;2024-01-10T10:30:55;20.98;;;11.48;;
25615;SDS011;13482;48.234;13.006;2024-01-10T10:33:28;20.08;;;12.45;;
25615;SDS011;13482;48.234;13.006;2024-01-10T10:36:00;26.27;;;13.43;;
25615;SDS011;13482;48.234;13.006;2024-01-10T10:38:28;19.70;;;12.43;;
25615;SDS011;13482;48.234;13.006;2024-01-10T10:40:55;19.10;;;11.55;;
25615;SDS011;13482;48.234;13.006;2024-01-10T10:43:26;19.90;;;12.45;;
25615;SDS011;13482;48.234;13.006;2024-01-10T10:46:09;17.65;;;11.05;;
25615;SDS011;13482;48.234;13.006;2024-01-10T10:48:41;16.75;;;10.40;;
25615;SDS011;13482;48.234;13.006;2024-01-10T10:51:11;15.40;;;9.82;;
25615;SDS011;13482;48.234;13.006;2024-01-10T10:53:57;14.88;;;9.95;;
25615;SDS011;13482;48.234;13.006;2024-01-10T10:56:29;15.32;;;9.27;;
25615;SDS011;13482;48.234;13.006;2024-01-10T10:59:01;14.40;;;9.23;;
25615;SDS011;13482;48.234;13.006;2024-01-10T11:01:31;15.82;;;9.93;;
25615;SDS011;13482;48.234;13.006;2024-01-10T11:04:01;12.70;;;8.57;;
25615;SDS011;13482;48.234;13.006;2024-01-10T11:06:34;13.32;;;8.48;;
25615;SDS011;13482;48.234;13.006;2024-01-10T11:09:05;14.05;;;9.55;;
25615;SDS011;13482;48.234;13.006;2024-01-10T11:23:44;15.40;;;9.45;;
25615;SDS011;13482;48.234;13.006;2024-01-10T11:26:22;13.38;;;8.63;;
25615;SDS011;13482;48.234;13.006;2024-01-10T11:28:52;13.73;;;8.95;;
25615;SDS011;13482;48.234;13.006;2024-01-10T11:31:29;14.75;;;9.00;;
25615;SDS011;13482;48.234;13.006;2024-01-10T11:34:05;14.13;;;9.30;;
25615;SDS011;13482;48.234;13.006;2024-01-10T11:36:38;12.90;;;8.98;;
25615;SDS011;13482;48.234;13.006;2024-01-10T11:39:08;14.65;;;9.02;;
25615;SDS011;13482;48.234;13.006;2024-01-10T11:41:39;14.30;;;9.50;;
25615;SDS011;13482;48.234;13.006;2024-01-10T11:46:38;14.98;;;10.00;;
25615;SDS011;13482;48.234;13.006;2024-01-10T11:49:07;13.50;;;9.40;;
25615;SDS011;13482;48.234;13.006;2024-01-10T11:51:36;14.95;;;9.50;;
25615;SDS011;13482;48.234;13.006;2024-01-10T11:54:04;13.80;;;9.25;;
25615;SDS011;13482;48.234;13.006;2024-01-10T11:56:39;14.25;;;9.00;;
25615;SDS011;13482;48.234;13.006;2024-01-10T11:59:09;14.20;;;9.13;;
25615;SDS011;13482;48.234;13.006;2024-01-10T12:01:39;14.65;;;9.23;;
25615;SDS011;13482;48.234;13.006;2024-01-10T12:04:08;15.93;;;9.55;;
25615;SDS011;13482;48.234;13.006;2024-01-10T12:06:46;12.60;;;8.68;;
25615;SDS011;13482;48.234;13.006;2024-01-10T12:09:16;13.65;;;8.95;;
25615;SDS011;13482;48.234;13.006;2024-01-10T12:11:45;15.65;;;10.00;;
25615;SDS011;13482;48.234;13.006;2024-01-10T12:14:12;12.40;;;9.02;;
25615;SDS011;13482;48.234;13.006;2024-01-10T12:16:42;14.20;;;9.60;;
25615;SDS011;13482;48.234;13.006;2024-01-10T12:19:10;13.90;;;9.30;;
25615;SDS011;13482;48.234;13.006;2024-01-10T12:21:38;14.57;;;10.02;;
25615;SDS011;13482;48.234;13.006;2024-01-10T12:24:06;16.00;;;9.80;;
25615;SDS011;13482;48.234;13.006;2024-01-10T12:26:33;12.90;;;8.55;;
25615;SDS011;13482;48.234;13.006;2024-01-10T12:29:02;14.15;;;9.50;;
25615;SDS011;13482;48.234;13.006;2024-01-10T12:31:33;14.93;;;9.60;;
25615;SDS011;13482;48.234;13.006;2024-01-10T12:34:00;13.90;;;8.95;;
25615;SDS011;13482;48.234;13.006;2024-01-10T12:36:31;14.88;;;9.77;;
25615;SDS011;13482;48.234;13.006;2024-01-10T12:38:59;14.95;;;9.88;;
25615;SDS011;13482;48.234;13.006;2024-01-10T12:41:27;14.90;;;9.80;;
25615;SDS011;13482;48.234;13.006;2024-01-10T12:43:55;18.30;;;10.98;;
25615;SDS011;13482;48.234;13.006;2024-01-10T12:46:22;16.13;;;10.55;;
25615;SDS011;13482;48.234;13.006;2024-01-10T12:51:34;15.95;;;10.25;;
25615;SDS011;13482;48.234;13.006;2024-01-10T12:54:05;15.98;;;10.23;;
25615;SDS011;13482;48.234;13.006;2024-01-10T12:56:32;13.50;;;9.32;;
25615;SDS011;13482;48.234;13.006;2024-01-10T12:59:01;14.00;;;9.70;;
25615;SDS011;13482;48.234;13.006;2024-01-10T13:01:29;14.70;;;9.70;;
25615;SDS011;13482;48.234;13.006;2024-01-10T13:03:57;14.00;;;9.40;;
25615;SDS011;13482;48.234;13.006;2024-01-10T13:06:25;14.13;;;9.73;;
25615;SDS011;13482;48.234;13.006;2024-01-10T13:08:52;14.75;;;9.25;;
25615;SDS011;13482;48.234;13.006;2024-01-10T13:11:21;14.52;;;9.20;;
25615;SDS011;13482;48.234;13.006;2024-01-10T13:13:49;13.90;;;9.27;;
25615;SDS011;13482;48.234;13.006;2024-01-10T13:16:17;15.02;;;9.93;;
25615;SDS011;13482;48.234;13.006;2024-01-10T13:18:44;14.98;;;9.90;;
25615;SDS011;13482;48.234;13.006;2024-01-10T13:21:12;15.52;;;9.80;;
25615;SDS011;13482;48.234;13.006;2024-01-10T13:23:40;16.15;;;9.90;;
25615;SDS011;13482;48.234;13.006;2024-01-10T13:26:08;15.73;;;9.90;;
25615;SDS011;13482;48.234;13.006;2024-01-10T13:28:38;14.63;;;9.95;;
25615;SDS011;13482;48.234;13.006;2024-01-10T13:31:08;17.52;;;9.85;;
25615;SDS011;13482;48.234;13.006;2024-01-10T13:33:37;15.88;;;10.02;;
25615;SDS011;13482;48.234;13.006;2024-01-10T13:36:12;15.40;;;9.38;;
25615;SDS011;13482;48.234;13.006;2024-01-10T13:38:41;15.60;;;9.82;;
25615;SDS011;13482;48.234;13.006;2024-01-10T13:41:08;14.15;;;10.07;;
25615;SDS011;13482;48.234;13.006;2024-01-10T13:43:36;15.25;;;10.45;;
25615;SDS011;13482;48.234;13.006;2024-01-10T13:46:03;14.85;;;9.77;;
25615;SDS011;13482;48.234;13.006;2024-01-10T13:48:35;13.80;;;9.50;;
25615;SDS011;13482;48.234;13.006;2024-01-10T13:51:03;16.85;;;10.43;;
25615;SDS011;13482;48.234;13.006;2024-01-10T13:53:31;15.02;;;10.73;;
25615;SDS011;13482;48.234;13.006;2024-01-10T13:56:01;17.02;;;10.70;;
25615;SDS011;13482;48.234;13.006;2024-01-10T13:58:28;15.90;;;10.95;;
25615;SDS011;13482;48.234;13.006;2024-01-10T14:00:59;16.27;;;11.63;;
25615;SDS011;13482;48.234;13.006;2024-01-10T14:04:32;14.80;;;10.10;;
25615;SDS011;13482;48.234;13.006;2024-01-10T14:07:23;14.90;;;9.85;;
25615;SDS011;13482;48.234;13.006;2024-01-10T14:09:54;15.77;;;10.27;;
25615;SDS011;13482;48.234;13.006;2024-01-10T14:12:21;15.70;;;10.70;;
25615;SDS011;13482;48.234;13.006;2024-01-10T14:14:49;16.27;;;10.45;;
25615;SDS011;13482;48.234;13.006;2024-01-10T14:17:17;14.77;;;10.30;;
25615;SDS011;13482;48.234;13.006;2024-01-10T14:19:44;14.95;;;10.18;;
25615;SDS011;13482;48.234;13.006;2024-01-10T14:22:12;14.80;;;10.10;;
25615;SDS011;13482;48.234;13.006;2024-01-10T14:24:54;14.65;;;10.23;;
25615;SDS011;13482;48.234;13.006;2024-01-10T14:27:23;16.13;;;10.38;;
25615;SDS011;13482;48.234;13.006;2024-01-10T14:29:52;15.30;;;10.70;;
25615;SDS011;13482;48.234;13.006;2024-01-10T14:32:19;13.73;;;9.98;;
25615;SDS011;13482;48.234;13.006;2024-01-10T14:34:47;15.07;;;9.90;;
25615;SDS011;13482;48.234;13.006;2024-01-10T14:37:15;14.82;;;10.30;;
25615;SDS011;13482;48.234;13.006;2024-01-10T14:39:43;14.75;;;9.88;;
25615;SDS011;13482;48.234;13.006;2024-01-10T14:42:10;16.48;;;10.52;;
25615;SDS011;13482;48.234;13.006;2024-01-10T14:44:37;16.05;;;10.63;;